createdAt,value
2023-01-30T00:02:20.352Z,2.01
2023-01-30T00:07:23.557Z,2.10
2023-01-30T00:12:26.752Z,2.18
2023-01-30T00:17:30.159Z,2.20
2023-01-30T00:22:33.297Z,2.17
2023-01-30T00:27:36.435Z,2.14
2023-01-30T00:32:39.543Z,2.09
2023-01-30T00:37:42.761Z,2.10
2023-01-30T00:43:04.958Z,2.11
2023-01-30T00:48:08.233Z,2.12
2023-01-30T00:53:16.323Z,2.09
2023-01-30T00:58:20.387Z,2.04
2023-01-30T01:03:23.855Z,2.03
2023-01-30T01:08:27.057Z,2.06
2023-01-30T01:13:30.234Z,2.10
2023-01-30T01:18:33.835Z,2.11
2023-01-30T01:23:37.135Z,2.09
2023-01-30T01:28:40.270Z,2.06
2023-01-30T01:33:46.987Z,2.04
2023-01-30T01:38:50.331Z,2.07
2023-01-30T01:44:12.317Z,2.12
2023-01-30T01:49:25.149Z,2.12
2023-01-30T01:54:36.925Z,2.11
2023-01-30T01:59:52.303Z,2.07
2023-01-30T02:05:02.398Z,2.08
2023-01-30T02:10:11.384Z,2.11
2023-01-30T02:15:15.666Z,2.14
2023-01-30T02:20:47.929Z,2.14
2023-01-30T02:26:14.201Z,2.07
2023-01-30T02:31:43.729Z,2.02
2023-01-30T02:37:06.085Z,1.98
2023-01-30T02:42:31.296Z,1.98
2023-01-30T02:47:40.267Z,1.96
2023-01-30T02:52:45.434Z,1.93
2023-01-30T02:57:48.582Z,1.89
2023-01-30T03:03:10.790Z,1.88
2023-01-30T03:08:23.528Z,1.91
2023-01-30T03:13:32.972Z,1.92
2023-01-30T03:18:37.400Z,1.88
2023-01-30T03:23:40.858Z,1.83
2023-01-30T03:28:46.666Z,1.77
2023-01-30T03:33:49.932Z,1.72
2023-01-30T03:38:53.688Z,1.70
2023-01-30T03:43:58.247Z,1.66
2023-01-30T03:49:01.512Z,1.61
2023-01-30T03:54:04.899Z,1.52
2023-01-30T03:59:08.296Z,1.47
2023-01-30T04:04:16.119Z,1.46
2023-01-30T04:09:19.539Z,1.47
2023-01-30T04:14:24.674Z,1.48
2023-01-30T04:19:46.385Z,1.43
2023-01-30T04:24:50.197Z,1.39
2023-01-30T04:29:53.483Z,1.39
2023-01-30T04:34:57.466Z,1.41
2023-01-30T04:40:00.729Z,1.43
2023-01-30T04:45:04.672Z,1.42
2023-01-30T04:50:09.669Z,1.41
2023-01-30T04:55:13.534Z,1.42
2023-01-30T05:00:17.458Z,1.47
2023-01-30T05:05:27.943Z,1.49
2023-01-30T05:10:31.394Z,1.51
2023-01-30T05:15:34.857Z,1.49
2023-01-30T05:20:38.168Z,1.47
2023-01-30T05:25:41.355Z,1.50
2023-01-30T05:30:47.905Z,1.53
2023-01-30T05:35:51.214Z,1.55
2023-01-30T05:41:05.239Z,1.49
2023-01-30T05:46:11.007Z,1.43
2023-01-30T05:51:23.526Z,1.44
2023-01-30T05:56:26.769Z,1.46
2023-01-30T06:01:40.191Z,1.47
2023-01-30T06:06:43.554Z,1.43
2023-01-30T06:11:46.778Z,1.39
2023-01-30T06:16:50.177Z,1.37
2023-01-30T06:21:53.302Z,1.39
2023-01-30T06:26:56.445Z,1.41
2023-01-30T06:31:59.682Z,1.40
2023-01-30T06:37:03.080Z,1.37
2023-01-30T06:42:07.326Z,1.38
2023-01-30T06:47:10.529Z,1.43
2023-01-30T06:52:13.640Z,1.46
2023-01-30T06:57:16.960Z,1.47
2023-01-30T07:02:20.131Z,1.44
2023-01-30T07:07:23.552Z,1.43
2023-01-30T07:12:27.390Z,1.45
2023-01-30T07:17:30.532Z,1.49
2023-01-30T07:22:33.775Z,1.52
2023-01-30T07:27:36.944Z,1.51
2023-01-30T07:32:40.191Z,1.47
2023-01-30T07:37:46.310Z,1.44
2023-01-30T07:43:07.169Z,1.40
2023-01-30T07:48:16.139Z,1.38
2023-01-30T07:53:19.386Z,1.34
2023-01-30T07:58:22.635Z,1.29
2023-01-30T08:03:25.828Z,1.26
2023-01-30T08:08:29.215Z,1.22
2023-01-30T08:13:32.617Z,1.17
2023-01-30T08:18:36.326Z,1.13
2023-01-30T08:23:39.572Z,1.12
2023-01-30T08:28:42.996Z,1.13
2023-01-30T08:33:46.358Z,1.11
2023-01-30T08:38:49.630Z,1.07
2023-01-30T08:43:53.089Z,1.08
2023-01-30T08:48:56.336Z,1.09
2023-01-30T08:53:59.600Z,1.12
2023-01-30T08:59:02.962Z,1.10
2023-01-30T09:04:06.305Z,1.06
2023-01-30T09:09:09.832Z,1.04
2023-01-30T09:14:13.691Z,1.07
2023-01-30T09:19:16.970Z,1.16
2023-01-30T09:24:21.013Z,1.23
2023-01-30T09:29:25.471Z,1.25
2023-01-30T09:34:39.239Z,1.22
2023-01-30T09:39:42.463Z,1.22
2023-01-30T09:45:01.574Z,1.29
2023-01-30T09:50:32.750Z,1.37
2023-01-30T09:55:42.206Z,1.46
2023-01-30T10:00:47.338Z,1.48
2023-01-30T10:05:55.473Z,1.45
2023-01-30T10:11:23.303Z,1.47
2023-01-30T10:16:41.343Z,1.49
2023-01-30T10:21:57.259Z,1.50
2023-01-30T10:27:02.972Z,1.52
2023-01-30T10:32:08.359Z,1.53
2023-01-30T10:37:26.998Z,1.51
2023-01-30T10:42:43.275Z,1.49
2023-01-30T10:48:42.453Z,1.51
2023-01-30T10:53:56.685Z,1.59
2023-01-30T10:59:26.306Z,1.65
2023-01-30T11:04:32.414Z,1.72
2023-01-30T11:09:44.230Z,1.74
2023-01-30T11:14:53.272Z,1.76
2023-01-30T11:19:58.217Z,1.80
2023-01-30T11:25:07.583Z,1.89
2023-01-30T11:30:15.815Z,1.98
2023-01-30T11:35:29.724Z,2.04
2023-01-30T11:40:38.728Z,2.12
2023-01-30T11:45:48.843Z,2.22
2023-01-30T11:50:58.177Z,2.29
2023-01-30T11:56:14.357Z,2.35
2023-01-30T12:01:17.645Z,2.36
2023-01-30T12:06:30.211Z,2.31
2023-01-30T12:11:36.474Z,2.24
2023-01-30T12:17:15.090Z,2.21
2023-01-30T12:22:33.913Z,2.24
2023-01-30T12:28:02.928Z,2.29
2023-01-30T12:33:11.284Z,2.34
2023-01-30T12:38:28.039Z,2.33
2023-01-30T12:43:56.782Z,2.28
2023-01-30T12:49:11.029Z,2.28
2023-01-30T12:54:39.489Z,2.31
2023-01-30T12:59:51.965Z,2.35
2023-01-30T13:05:32.262Z,2.36
2023-01-30T13:10:42.927Z,2.30
2023-01-30T13:16:00.269Z,2.30
2023-01-30T13:21:37.245Z,2.35
2023-01-30T13:26:43.959Z,2.38
2023-01-30T13:31:57.493Z,2.38
2023-01-30T13:37:27.634Z,2.36
2023-01-30T13:42:46.462Z,2.34
2023-01-30T13:48:22.025Z,2.39
2023-01-30T13:53:35.350Z,2.44
2023-01-30T13:58:47.774Z,2.46
2023-01-30T14:04:39.874Z,2.44
2023-01-30T14:09:49.524Z,2.47
2023-01-30T14:15:14.099Z,2.53
2023-01-30T14:20:21.073Z,2.56
2023-01-30T14:25:30.496Z,2.59
2023-01-30T14:30:45.544Z,2.61
2023-01-30T14:35:48.769Z,2.58
2023-01-30T14:40:58.244Z,2.57
2023-01-30T14:46:18.261Z,2.61
2023-01-30T14:51:40.180Z,2.65
2023-01-30T14:56:56.559Z,2.63
2023-01-30T15:02:21.805Z,2.61
2023-01-30T15:07:29.978Z,2.57
2023-01-30T15:12:58.117Z,2.56
2023-01-30T15:18:10.426Z,2.61
2023-01-30T15:23:13.458Z,2.68
2023-01-30T15:28:39.176Z,2.72
2023-01-30T15:33:50.897Z,2.73
2023-01-30T15:39:20.104Z,2.70
2023-01-30T15:45:01.207Z,2.71
2023-01-30T15:50:09.191Z,2.79
2023-01-30T15:55:24.637Z,2.87
2023-01-30T16:00:37.447Z,2.91
2023-01-30T16:05:52.563Z,2.91
2023-01-30T16:10:56.627Z,2.90
2023-01-30T16:16:03.066Z,2.91
2023-01-30T16:21:28.971Z,2.96
2023-01-30T16:26:36.650Z,3.03
2023-01-30T16:31:41.651Z,3.05
2023-01-30T16:36:48.117Z,3.04
2023-01-30T16:41:56.482Z,3.02
2023-01-30T16:47:24.685Z,3.03
2023-01-30T16:52:47.178Z,3.09
2023-01-30T16:57:54.762Z,3.16
2023-01-30T17:03:01.079Z,3.19
2023-01-30T17:08:05.883Z,3.18
2023-01-30T17:13:47.529Z,3.17
2023-01-30T17:18:58.429Z,3.19
2023-01-30T17:24:04.677Z,3.25
2023-01-30T17:29:23.313Z,3.32
2023-01-30T17:34:28.755Z,3.38
2023-01-30T17:39:33.365Z,3.37
2023-01-30T17:44:36.642Z,3.34
2023-01-30T17:49:40.628Z,3.36
2023-01-30T17:54:43.998Z,3.41
2023-01-30T17:59:50.125Z,3.43
2023-01-30T18:04:53.419Z,3.45
2023-01-30T18:09:56.682Z,3.46
2023-01-30T18:15:00.300Z,3.45
2023-01-30T18:20:25.920Z,3.46
2023-01-30T18:25:29.150Z,3.51
2023-01-30T18:30:32.406Z,3.56
2023-01-30T18:35:38.203Z,3.61
2023-01-30T18:40:41.691Z,3.61
2023-01-30T18:45:44.858Z,3.58
2023-01-30T18:50:48.067Z,3.55
2023-01-30T18:55:51.259Z,3.56
2023-01-30T19:00:54.574Z,3.58
2023-01-30T19:06:01.908Z,3.54
2023-01-30T19:11:42.483Z,3.47
2023-01-30T19:16:45.792Z,3.36
2023-01-30T19:21:50.707Z,3.30
2023-01-30T19:26:53.958Z,3.33
2023-01-30T19:31:57.259Z,3.37
2023-01-30T19:37:01.336Z,3.39
2023-01-30T19:42:23.062Z,3.40
2023-01-30T19:47:54.441Z,3.43
2023-01-30T19:52:57.704Z,3.46
2023-01-30T19:58:01.827Z,3.49
2023-01-30T20:03:05.003Z,3.53
2023-01-30T20:08:09.691Z,3.50
2023-01-30T20:13:15.955Z,3.45
2023-01-30T20:18:19.220Z,3.43
2023-01-30T20:23:23.180Z,3.45
2023-01-30T20:28:48.463Z,3.46
2023-01-30T20:33:57.560Z,3.51
2023-01-30T20:39:04.059Z,3.53
2023-01-30T20:44:17.199Z,3.53
2023-01-30T20:49:22.033Z,3.49
2023-01-30T20:54:25.330Z,3.46
2023-01-30T20:59:29.387Z,3.46
2023-01-30T21:04:32.796Z,3.43
2023-01-30T21:09:36.374Z,3.41
2023-01-30T21:14:40.131Z,3.35
2023-01-30T21:19:46.129Z,3.32
2023-01-30T21:25:00.931Z,3.32
2023-01-30T21:30:08.263Z,3.32
2023-01-30T21:35:11.420Z,3.30
2023-01-30T21:40:33.501Z,3.26
2023-01-30T21:45:36.688Z,3.18
2023-01-30T21:50:40.301Z,3.16
2023-01-30T21:55:43.611Z,3.15
2023-01-30T22:00:46.844Z,3.13
2023-01-30T22:05:50.012Z,3.10
2023-01-30T22:11:07.659Z,3.09
2023-01-30T22:16:13.778Z,3.09
2023-01-30T22:21:19.440Z,3.09
2023-01-30T22:26:24.970Z,3.13
2023-01-30T22:31:34.575Z,3.18
2023-01-30T22:36:38.367Z,3.22
2023-01-30T22:41:41.882Z,3.23
2023-01-30T22:46:45.073Z,3.20
2023-01-30T22:51:58.017Z,3.19
2023-01-30T22:57:01.222Z,3.23
2023-01-30T23:02:04.498Z,3.26
2023-01-30T23:07:07.954Z,3.28
2023-01-30T23:12:29.439Z,3.29
2023-01-30T23:17:51.516Z,3.26
2023-01-30T23:22:54.617Z,3.26
2023-01-30T23:27:57.781Z,3.30
2023-01-30T23:33:01.145Z,3.36
2023-01-30T23:38:19.042Z,3.39
2023-01-30T23:43:22.341Z,3.40
2023-01-30T23:48:25.614Z,3.38
2023-01-30T23:53:29.879Z,3.38
2023-01-30T23:58:35.180Z,3.40
